createdAt,value
2019-02-03T00:00:00.828Z,836.45
2019-02-03T00:01:00.787Z,836.41
2019-02-03T00:02:00.555Z,836.41
2019-02-03T00:03:00.420Z,836.33
2019-02-03T00:04:00.287Z,836.37
2019-02-03T00:05:00.367Z,836.37
2019-02-03T00:06:00.023Z,836.37
2019-02-03T00:07:03.440Z,836.37
2019-02-03T00:07:59.755Z,836.41
2019-02-03T00:08:59.630Z,836.39
2019-02-03T00:09:59.488Z,836.41
2019-02-03T00:10:59.366Z,836.44
2019-02-03T00:11:59.224Z,836.40
2019-02-03T00:12:59.089Z,836.33
2019-02-03T00:13:58.958Z,836.27
2019-02-03T00:14:58.823Z,836.22
2019-02-03T00:15:58.690Z,836.19
2019-02-03T00:16:58.554Z,836.21
2019-02-03T00:17:58.421Z,836.21
2019-02-03T00:18:58.288Z,836.19
2019-02-03T00:19:58.161Z,836.19
2019-02-03T00:20:58.019Z,836.22
2019-02-03T00:21:57.888Z,836.22
2019-02-03T00:22:57.758Z,836.19
2019-02-03T00:23:57.621Z,836.20
2019-02-03T00:24:57.509Z,836.12
2019-02-03T00:25:57.354Z,836.10
2019-02-03T00:26:57.220Z,836.05
2019-02-03T00:27:57.092Z,835.92
2019-02-03T00:28:56.954Z,835.81
2019-02-03T00:29:56.824Z,835.71
2019-02-03T00:30:56.688Z,835.61
2019-02-03T00:31:56.555Z,835.45
2019-02-03T00:32:56.422Z,835.33
2019-02-03T00:33:56.288Z,835.22
2019-02-03T00:34:56.156Z,835.08
2019-02-03T00:35:56.024Z,835.00
2019-02-03T00:36:55.887Z,834.98
2019-02-03T00:37:55.849Z,834.99
2019-02-03T00:38:55.629Z,835.09
2019-02-03T00:39:55.490Z,835.18
2019-02-03T00:40:55.355Z,835.22
2019-02-03T00:41:55.243Z,835.33
2019-02-03T00:42:55.093Z,835.36
2019-02-03T00:43:54.958Z,835.38
2019-02-03T00:44:54.826Z,835.42
2019-02-03T00:45:54.693Z,835.44
2019-02-03T00:46:54.557Z,835.46
2019-02-03T00:47:54.422Z,835.49
2019-02-03T00:48:54.290Z,835.48
2019-02-03T00:49:54.160Z,835.48
2019-02-03T00:50:54.024Z,835.51
2019-02-03T00:51:53.893Z,835.54
2019-02-03T00:52:53.757Z,835.63
2019-02-03T00:53:53.621Z,835.64
2019-02-03T00:54:53.489Z,835.73
2019-02-03T00:55:53.357Z,835.83
2019-02-03T00:56:53.221Z,835.92
2019-02-03T00:57:53.089Z,835.95
2019-02-03T00:58:52.956Z,836.05
2019-02-03T00:59:52.823Z,836.12
2019-02-03T01:00:52.689Z,836.17
2019-02-03T01:01:52.554Z,836.25
2019-02-03T01:02:52.422Z,836.24
2019-02-03T01:03:52.289Z,836.29
2019-02-03T01:04:52.154Z,836.34
2019-02-03T01:05:52.020Z,836.33
2019-02-03T01:06:51.888Z,836.40
2019-02-03T01:07:51.754Z,836.43
2019-02-03T01:08:51.619Z,836.42
2019-02-03T01:09:51.487Z,836.46
2019-02-03T01:10:51.354Z,836.45
2019-02-03T01:11:51.219Z,836.45
2019-02-03T01:12:51.090Z,836.46
2019-02-03T01:13:50.954Z,836.50
2019-02-03T01:14:50.820Z,836.49
2019-02-03T01:15:50.687Z,836.53
2019-02-03T01:16:50.554Z,836.56
2019-02-03T01:17:50.419Z,836.60
2019-02-03T01:18:50.294Z,836.57
2019-02-03T01:19:50.153Z,836.58
2019-02-03T01:20:50.017Z,836.61
2019-02-03T01:21:49.884Z,836.58
2019-02-03T01:22:49.751Z,836.59
2019-02-03T01:23:49.617Z,836.57
2019-02-03T01:24:49.484Z,836.54
2019-02-03T01:25:49.350Z,836.53
2019-02-03T01:26:49.216Z,836.54
2019-02-03T01:27:49.085Z,836.52
2019-02-03T01:28:48.950Z,836.53
2019-02-03T01:29:48.816Z,836.53
2019-02-03T01:30:48.683Z,836.54
2019-02-03T01:31:49.233Z,836.54
2019-02-03T01:32:48.415Z,836.55
2019-02-03T01:33:48.281Z,836.50
2019-02-03T01:34:48.150Z,836.51
2019-02-03T01:35:48.020Z,836.52
2019-02-03T01:36:47.880Z,836.50
2019-02-03T01:37:47.749Z,836.50
2019-02-03T01:38:47.616Z,836.52
2019-02-03T01:39:47.481Z,836.48
2019-02-03T01:40:47.356Z,836.54
2019-02-03T01:41:47.215Z,836.59
2019-02-03T01:42:47.079Z,836.58
2019-02-03T01:43:46.947Z,836.59
2019-02-03T01:44:46.814Z,836.61
2019-02-03T01:45:46.680Z,836.60
2019-02-03T01:46:46.547Z,836.62
2019-02-03T01:47:46.416Z,836.58
2019-02-03T01:48:46.295Z,836.59
2019-02-03T01:49:46.147Z,836.60
2019-02-03T01:50:46.013Z,836.61
2019-02-03T01:51:45.878Z,836.60
2019-02-03T01:52:45.744Z,836.60
2019-02-03T01:53:45.610Z,836.61
2019-02-03T01:54:45.478Z,836.64
2019-02-03T01:55:45.347Z,836.62
2019-02-03T01:56:45.213Z,836.59
2019-02-03T01:57:45.076Z,836.64
2019-02-03T01:58:44.944Z,836.67
2019-02-03T01:59:44.809Z,836.66
2019-02-03T02:00:44.693Z,836.73
2019-02-03T02:01:44.543Z,836.70
2019-02-03T02:02:44.408Z,836.75
2019-02-03T02:03:44.350Z,836.74
2019-02-03T02:04:44.144Z,836.76
2019-02-03T02:05:44.009Z,836.75
2019-02-03T02:06:43.875Z,836.75
2019-02-03T02:07:51.172Z,836.74
2019-02-03T02:08:43.606Z,836.70
2019-02-03T02:09:43.473Z,836.78
2019-02-03T02:10:43.340Z,836.80
2019-02-03T02:11:43.206Z,836.81
2019-02-03T02:12:43.071Z,836.79
2019-02-03T02:13:42.939Z,836.84
2019-02-03T02:14:42.803Z,836.87
2019-02-03T02:15:42.670Z,836.86
2019-02-03T02:16:42.537Z,836.85
2019-02-03T02:17:42.403Z,836.81
2019-02-03T02:18:42.269Z,836.83
2019-02-03T02:19:42.135Z,836.82
2019-02-03T02:20:42.002Z,836.82
2019-02-03T02:21:41.869Z,836.82
2019-02-03T02:22:41.738Z,836.80
2019-02-03T02:23:41.637Z,836.79
2019-02-03T02:24:41.466Z,836.76
2019-02-03T02:25:41.334Z,836.84
2019-02-03T02:26:41.213Z,836.82
2019-02-03T02:27:41.070Z,836.88
2019-02-03T02:28:40.931Z,836.87
2019-02-03T02:29:40.801Z,836.93
2019-02-03T02:30:40.666Z,836.89
2019-02-03T02:31:40.537Z,836.89
2019-02-03T02:32:40.398Z,836.90
2019-02-03T02:33:40.266Z,836.87
2019-02-03T02:34:40.132Z,836.91
2019-02-03T02:35:40.013Z,836.89
2019-02-03T02:36:39.865Z,836.92
2019-02-03T02:37:39.732Z,836.93
2019-02-03T02:38:39.596Z,836.88
2019-02-03T02:39:39.465Z,836.89
2019-02-03T02:40:39.336Z,836.92
2019-02-03T02:41:39.196Z,836.91
2019-02-03T02:42:39.064Z,836.94
2019-02-03T02:43:38.936Z,836.94
2019-02-03T02:44:38.794Z,836.93
2019-02-03T02:45:38.667Z,836.93
2019-02-03T02:46:38.531Z,836.94
2019-02-03T02:47:38.397Z,836.95
2019-02-03T02:48:38.264Z,836.92
2019-02-03T02:49:38.126Z,836.94
2019-02-03T02:50:37.996Z,836.92
2019-02-03T02:51:37.862Z,836.93
2019-02-03T02:52:37.726Z,836.96
2019-02-03T02:53:37.594Z,837.01
2019-02-03T02:54:37.457Z,837.04
2019-02-03T02:55:37.452Z,837.05
2019-02-03T02:56:37.191Z,837.01
2019-02-03T02:57:37.059Z,837.06
2019-02-03T02:58:36.926Z,837.05
2019-02-03T02:59:36.795Z,837.04
2019-02-03T03:00:36.664Z,837.06
2019-02-03T03:01:36.526Z,837.05
2019-02-03T03:02:36.390Z,837.05
2019-02-03T03:03:36.255Z,837.08
2019-02-03T03:04:36.122Z,837.12
2019-02-03T03:05:35.987Z,837.12
2019-02-03T03:06:35.854Z,837.18
2019-02-03T03:07:35.728Z,837.18
2019-02-03T03:08:35.585Z,837.21
2019-02-03T03:09:35.451Z,837.20
2019-02-03T03:10:35.318Z,837.20
2019-02-03T03:11:35.184Z,837.23
2019-02-03T03:12:35.051Z,837.18
2019-02-03T03:13:34.916Z,837.19
2019-02-03T03:14:34.783Z,837.19
2019-02-03T03:15:34.650Z,837.18
2019-02-03T03:16:34.516Z,837.17
2019-02-03T03:17:34.382Z,837.20
2019-02-03T03:18:34.248Z,837.21
2019-02-03T03:19:34.115Z,837.22
2019-02-03T03:20:33.984Z,837.21
2019-02-03T03:21:33.843Z,837.23
2019-02-03T03:22:33.711Z,837.27
2019-02-03T03:23:33.577Z,837.26
2019-02-03T03:24:33.443Z,837.31
2019-02-03T03:25:33.310Z,837.33
2019-02-03T03:26:33.190Z,837.39
2019-02-03T03:27:33.040Z,837.40
2019-02-03T03:28:32.910Z,837.44
2019-02-03T03:29:33.987Z,837.47
2019-02-03T03:30:32.675Z,837.45
2019-02-03T03:31:32.508Z,837.46
2019-02-03T03:32:32.379Z,837.46
2019-02-03T03:33:32.239Z,837.48
2019-02-03T03:34:32.102Z,837.47
2019-02-03T03:35:34.378Z,837.50
2019-02-03T03:36:31.834Z,837.56
2019-02-03T03:37:31.701Z,837.54
2019-02-03T03:38:32.524Z,837.59
2019-02-03T03:39:31.436Z,837.62
2019-02-03T03:40:31.297Z,837.64
2019-02-03T03:41:31.164Z,837.63
2019-02-03T03:42:31.031Z,837.64
2019-02-03T03:43:30.899Z,837.65
2019-02-03T03:44:30.763Z,837.66
2019-02-03T03:45:30.632Z,837.69
2019-02-03T03:46:30.494Z,837.70
2019-02-03T03:47:30.360Z,837.69
2019-02-03T03:48:30.226Z,837.73
2019-02-03T03:49:30.097Z,837.75
2019-02-03T03:50:29.976Z,837.73
2019-02-03T03:51:29.824Z,837.78
2019-02-03T03:52:29.686Z,837.80
2019-02-03T03:53:29.553Z,837.83
2019-02-03T03:54:29.421Z,837.84
2019-02-03T03:55:29.287Z,837.89
2019-02-03T03:56:29.155Z,837.86
2019-02-03T03:57:29.016Z,837.93
2019-02-03T03:58:28.884Z,837.89
2019-02-03T03:59:28.750Z,837.90
2019-02-03T04:00:28.615Z,837.96
2019-02-03T04:01:28.482Z,837.98
2019-02-03T04:02:28.349Z,838.00
2019-02-03T04:03:28.213Z,838.05
2019-02-03T04:04:28.078Z,838.02
2019-02-03T04:05:27.943Z,838.06
2019-02-03T04:06:27.811Z,838.04
2019-02-03T04:07:27.676Z,838.07
2019-02-03T04:08:27.543Z,838.11
2019-02-03T04:09:27.409Z,838.14
2019-02-03T04:10:27.284Z,838.18
2019-02-03T04:11:27.139Z,838.18
2019-02-03T04:12:27.006Z,838.16
2019-02-03T04:13:26.872Z,838.17
2019-02-03T04:14:26.737Z,838.14
2019-02-03T04:15:26.608Z,838.18
2019-02-03T04:16:26.469Z,838.16
2019-02-03T04:17:26.336Z,838.18
2019-02-03T04:18:26.202Z,838.21
2019-02-03T04:19:26.069Z,838.23
2019-02-03T04:20:25.959Z,838.28
2019-02-03T04:21:25.801Z,838.29
2019-02-03T04:22:25.664Z,838.27
2019-02-03T04:23:25.535Z,838.33
2019-02-03T04:24:25.398Z,838.35
2019-02-03T04:25:25.271Z,838.36
2019-02-03T04:26:25.128Z,838.33
2019-02-03T04:27:24.994Z,838.36
2019-02-03T04:28:24.859Z,838.34
2019-02-03T04:29:24.726Z,838.35
2019-02-03T04:30:24.592Z,838.41
2019-02-03T04:31:24.459Z,838.45
2019-02-03T04:32:24.324Z,838.47
2019-02-03T04:33:24.188Z,838.46
2019-02-03T04:34:24.062Z,838.49
2019-02-03T04:35:24.014Z,838.49
2019-02-03T04:36:23.785Z,838.51
2019-02-03T04:37:23.654Z,838.53
2019-02-03T04:38:23.523Z,838.53
2019-02-03T04:39:23.385Z,838.58
2019-02-03T04:40:23.250Z,838.59
2019-02-03T04:41:23.115Z,838.57
2019-02-03T04:42:22.982Z,838.58
2019-02-03T04:43:22.853Z,838.57
2019-02-03T04:44:22.713Z,838.58
2019-02-03T04:45:23.031Z,838.61
2019-02-03T04:46:22.446Z,838.60
2019-02-03T04:47:22.314Z,838.61
2019-02-03T04:48:22.184Z,838.59
2019-02-03T04:49:22.046Z,838.66
2019-02-03T04:50:21.911Z,838.62
2019-02-03T04:51:21.778Z,838.67
2019-02-03T04:52:21.642Z,838.64
2019-02-03T04:53:21.508Z,838.69
2019-02-03T04:54:21.375Z,838.63
2019-02-03T04:55:21.246Z,838.69
2019-02-03T04:56:21.105Z,838.73
2019-02-03T04:57:20.973Z,838.75
2019-02-03T04:58:20.856Z,838.76
2019-02-03T04:59:20.708Z,838.80
2019-02-03T05:00:20.570Z,838.81
2019-02-03T05:01:20.436Z,838.84
2019-02-03T05:02:20.303Z,838.83
2019-02-03T05:03:20.168Z,838.83
2019-02-03T05:04:20.038Z,838.87
2019-02-03T05:05:19.905Z,838.88
2019-02-03T05:06:19.766Z,838.87
2019-02-03T05:07:19.633Z,838.93
2019-02-03T05:08:19.502Z,838.90
2019-02-03T05:09:19.364Z,838.90
2019-02-03T05:10:19.230Z,838.92
2019-02-03T05:11:19.096Z,838.93
2019-02-03T05:12:18.963Z,838.96
2019-02-03T05:13:18.828Z,838.96
2019-02-03T05:14:18.694Z,838.98
2019-02-03T05:15:18.565Z,839.02
2019-02-03T05:16:18.421Z,839.02
2019-02-03T05:17:18.998Z,839.05
2019-02-03T05:18:18.156Z,839.09
2019-02-03T05:19:18.035Z,839.12
2019-02-03T05:20:17.886Z,839.15
2019-02-03T05:21:17.756Z,839.14
2019-02-03T05:22:17.622Z,839.21
2019-02-03T05:23:17.486Z,839.25
2019-02-03T05:24:17.349Z,839.22
2019-02-03T05:25:17.217Z,839.24
2019-02-03T05:26:17.081Z,839.24
2019-02-03T05:27:16.951Z,839.27
2019-02-03T05:28:16.812Z,839.32
2019-02-03T05:29:16.681Z,839.35
2019-02-03T05:30:16.551Z,839.35
2019-02-03T05:31:16.414Z,839.38
2019-02-03T05:32:16.277Z,839.36
2019-02-03T05:33:16.143Z,839.37
2019-02-03T05:34:16.017Z,839.47
2019-02-03T05:35:15.874Z,839.45
2019-02-03T05:36:15.738Z,839.48
2019-02-03T05:37:15.606Z,839.49
2019-02-03T05:38:15.470Z,839.50
2019-02-03T05:39:24.476Z,839.51
2019-02-03T05:40:15.205Z,839.51
2019-02-03T05:41:15.067Z,839.51
2019-02-03T05:42:14.934Z,839.49
2019-02-03T05:43:14.801Z,839.52
2019-02-03T05:44:14.666Z,839.53
2019-02-03T05:45:14.535Z,839.58
2019-02-03T05:46:14.395Z,839.57
2019-02-03T05:47:14.407Z,839.62
2019-02-03T05:48:14.125Z,839.65
2019-02-03T05:49:14.015Z,839.64
2019-02-03T05:50:13.857Z,839.69
2019-02-03T05:51:13.739Z,839.65
2019-02-03T05:52:13.586Z,839.69
2019-02-03T05:53:13.455Z,839.72
2019-02-03T05:54:13.320Z,839.75
2019-02-03T05:55:13.188Z,839.77
2019-02-03T05:56:13.051Z,839.79
2019-02-03T05:57:12.919Z,839.80
2019-02-03T05:58:12.785Z,839.79
2019-02-03T05:59:12.651Z,839.82
2019-02-03T06:00:12.517Z,839.82
2019-02-03T06:01:12.502Z,839.81
2019-02-03T06:02:12.252Z,839.81
2019-02-03T06:03:12.215Z,839.87
2019-02-03T06:04:11.977Z,839.90
2019-02-03T06:05:11.844Z,839.92
2019-02-03T06:06:11.709Z,839.97
2019-02-03T06:07:11.581Z,839.95
2019-02-03T06:08:11.439Z,839.93
2019-02-03T06:09:11.305Z,839.96
2019-02-03T06:10:11.173Z,839.96
2019-02-03T06:11:11.038Z,840.01
2019-02-03T06:12:10.900Z,839.95
2019-02-03T06:13:10.767Z,839.98
2019-02-03T06:14:10.685Z,839.99
2019-02-03T06:15:10.507Z,840.03
2019-02-03T06:16:10.364Z,840.02
2019-02-03T06:17:10.230Z,840.03
2019-02-03T06:18:10.096Z,840.01
2019-02-03T06:19:09.962Z,840.08
2019-02-03T06:20:09.897Z,840.10
2019-02-03T06:21:09.690Z,840.18
2019-02-03T06:22:09.558Z,840.14
2019-02-03T06:23:09.423Z,840.23
2019-02-03T06:24:09.288Z,840.21
2019-02-03T06:25:09.155Z,840.24
2019-02-03T06:26:09.022Z,840.20
2019-02-03T06:27:08.885Z,840.21
2019-02-03T06:28:08.751Z,840.23
2019-02-03T06:29:08.620Z,840.28
2019-02-03T06:30:08.482Z,840.30
2019-02-03T06:31:08.349Z,840.32
2019-02-03T06:32:08.213Z,840.31
2019-02-03T06:33:08.079Z,840.32
2019-02-03T06:34:07.944Z,840.31
2019-02-03T06:35:07.813Z,840.35
2019-02-03T06:36:07.683Z,840.33
2019-02-03T06:37:07.547Z,840.38
2019-02-03T06:38:07.408Z,840.37
2019-02-03T06:39:07.277Z,840.40
2019-02-03T06:40:07.138Z,840.40
2019-02-03T06:41:07.003Z,840.44
2019-02-03T06:42:06.870Z,840.44
2019-02-03T06:43:06.735Z,840.48
2019-02-03T06:44:06.606Z,840.47
2019-02-03T06:45:06.466Z,840.53
2019-02-03T06:46:06.335Z,840.52
2019-02-03T06:47:06.199Z,840.51
2019-02-03T06:48:06.068Z,840.54
2019-02-03T06:49:05.930Z,840.49
2019-02-03T06:50:05.796Z,840.56
2019-02-03T06:51:05.660Z,840.53
2019-02-03T06:52:05.525Z,840.61
2019-02-03T06:53:05.391Z,840.63
2019-02-03T06:54:05.260Z,840.64
2019-02-03T06:55:05.124Z,840.67
2019-02-03T06:56:04.989Z,840.70
2019-02-03T06:57:04.854Z,840.69
2019-02-03T06:58:04.723Z,840.68
2019-02-03T06:59:04.590Z,840.72
2019-02-03T07:00:04.453Z,840.76
2019-02-03T07:01:04.318Z,840.78
2019-02-03T07:02:04.186Z,840.82
2019-02-03T07:03:04.056Z,840.86
2019-02-03T07:04:03.955Z,840.91
2019-02-03T07:05:03.780Z,840.91
2019-02-03T07:06:03.650Z,840.92
2019-02-03T07:07:03.547Z,840.91
2019-02-03T07:08:03.378Z,840.95
2019-02-03T07:09:03.249Z,840.96
2019-02-03T07:10:03.114Z,840.97
2019-02-03T07:11:02.976Z,841.05
2019-02-03T07:12:02.847Z,841.13
2019-02-03T07:13:02.706Z,841.10
2019-02-03T07:14:02.575Z,841.11
2019-02-03T07:15:02.439Z,841.11
2019-02-03T07:16:02.303Z,841.15
2019-02-03T07:17:02.172Z,841.16
2019-02-03T07:18:02.040Z,841.18
2019-02-03T07:19:01.901Z,841.19
2019-02-03T07:20:01.772Z,841.22
2019-02-03T07:21:01.637Z,841.25
2019-02-03T07:22:01.500Z,841.27
2019-02-03T07:23:01.364Z,841.28
2019-02-03T07:24:01.235Z,841.30
2019-02-03T07:25:01.098Z,841.25
2019-02-03T07:26:00.966Z,841.27
2019-02-03T07:27:00.829Z,841.31
2019-02-03T07:28:00.693Z,841.36
2019-02-03T07:29:00.562Z,841.34
2019-02-03T07:30:00.509Z,841.40
2019-02-03T07:31:00.290Z,841.41
2019-02-03T07:32:00.158Z,841.44
2019-02-03T07:33:00.021Z,841.40
2019-02-03T07:33:59.889Z,841.42
2019-02-03T07:34:59.758Z,841.45
2019-02-03T07:35:59.619Z,841.43
2019-02-03T07:36:59.484Z,841.47
2019-02-03T07:37:59.350Z,841.50
2019-02-03T07:38:59.218Z,841.49
2019-02-03T07:39:59.097Z,841.50
2019-02-03T07:40:58.947Z,841.55
2019-02-03T07:41:58.816Z,841.54
2019-02-03T07:42:58.679Z,841.53
2019-02-03T07:43:58.545Z,841.58
2019-02-03T07:44:58.411Z,841.60
2019-02-03T07:45:58.277Z,841.61
2019-02-03T07:46:58.505Z,841.65
2019-02-03T07:47:58.014Z,841.64
2019-02-03T07:48:57.874Z,841.65
2019-02-03T07:49:57.747Z,841.66
2019-02-03T07:50:57.606Z,841.66
2019-02-03T07:51:57.474Z,841.65
2019-02-03T07:52:57.335Z,841.67
2019-02-03T07:54:07.756Z,841.71
2019-02-03T07:54:57.067Z,841.72
2019-02-03T07:55:56.935Z,841.75
2019-02-03T07:56:56.810Z,841.77
2019-02-03T07:57:56.671Z,841.76
2019-02-03T07:58:56.530Z,841.73
2019-02-03T07:59:56.397Z,841.80
2019-02-03T08:00:56.297Z,841.79
2019-02-03T08:01:56.128Z,841.80
2019-02-03T08:02:55.995Z,841.82
2019-02-03T08:03:55.858Z,841.84
2019-02-03T08:04:55.730Z,841.84
2019-02-03T08:05:55.590Z,841.86
2019-02-03T08:06:55.456Z,841.83
2019-02-03T08:07:55.327Z,841.89
2019-02-03T08:08:55.187Z,841.91
2019-02-03T08:09:55.053Z,841.90
2019-02-03T08:10:54.919Z,841.86
2019-02-03T08:11:54.785Z,841.91
2019-02-03T08:12:54.653Z,841.91
2019-02-03T08:13:54.521Z,841.92
2019-02-03T08:14:54.383Z,841.92
2019-02-03T08:15:54.248Z,841.96
2019-02-03T08:16:54.114Z,841.99
2019-02-03T08:17:54.098Z,841.97
2019-02-03T08:18:53.847Z,842.01
2019-02-03T08:19:53.713Z,842.01
2019-02-03T08:20:53.582Z,842.03
2019-02-03T08:21:53.447Z,842.06
2019-02-03T08:22:53.311Z,842.03
2019-02-03T08:23:53.181Z,842.04
2019-02-03T08:24:53.042Z,842.13
2019-02-03T08:25:52.911Z,842.08
2019-02-03T08:26:52.775Z,842.12
2019-02-03T08:27:52.640Z,842.11
2019-02-03T08:28:52.507Z,842.13
2019-02-03T08:29:52.377Z,842.19
2019-02-03T08:30:52.241Z,842.21
2019-02-03T08:31:52.104Z,842.21
2019-02-03T08:32:51.971Z,842.18
2019-02-03T08:33:51.841Z,842.20
2019-02-03T08:34:51.702Z,842.22
2019-02-03T08:35:51.584Z,842.27
2019-02-03T08:36:51.469Z,842.28
2019-02-03T08:37:51.306Z,842.27
2019-02-03T08:38:51.167Z,842.30
2019-02-03T08:39:51.032Z,842.30
2019-02-03T08:40:50.897Z,842.31
2019-02-03T08:41:50.766Z,842.32
2019-02-03T08:42:50.630Z,842.34
2019-02-03T08:43:50.497Z,842.38
2019-02-03T08:44:50.361Z,842.41
2019-02-03T08:45:50.237Z,842.41
2019-02-03T08:46:50.121Z,842.45
2019-02-03T08:47:49.961Z,842.42
2019-02-03T08:48:49.826Z,842.44
2019-02-03T08:49:49.692Z,842.45
2019-02-03T08:50:49.556Z,842.47
2019-02-03T08:51:49.424Z,842.45
2019-02-03T08:52:51.276Z,842.44
2019-02-03T08:53:49.165Z,842.45
2019-02-03T08:54:57.922Z,842.51
2019-02-03T08:55:48.888Z,842.49
2019-02-03T08:56:48.756Z,842.50
2019-02-03T08:57:48.630Z,842.55
2019-02-03T08:58:48.487Z,842.55
2019-02-03T08:59:48.360Z,842.55
2019-02-03T09:00:48.223Z,842.57
2019-02-03T09:01:48.085Z,842.62
2019-02-03T09:02:47.952Z,842.62
2019-02-03T09:03:47.818Z,842.63
2019-02-03T09:04:47.687Z,842.65
2019-02-03T09:05:47.558Z,842.66
2019-02-03T09:06:47.417Z,842.66
2019-02-03T09:07:47.303Z,842.69
2019-02-03T09:08:47.149Z,842.70
2019-02-03T09:09:47.017Z,842.72
2019-02-03T09:10:48.608Z,842.67
2019-02-03T09:11:46.750Z,842.71
2019-02-03T09:12:46.615Z,842.73
2019-02-03T09:13:46.483Z,842.74
2019-02-03T09:14:46.348Z,842.72
2019-02-03T09:15:46.218Z,842.76
2019-02-03T09:16:46.080Z,842.79
2019-02-03T09:17:45.946Z,842.84
2019-02-03T09:18:45.933Z,842.83
2019-02-03T09:19:45.680Z,842.86
2019-02-03T09:20:48.138Z,842.85
2019-02-03T09:21:45.413Z,842.86
2019-02-03T09:22:45.281Z,842.87
2019-02-03T09:23:45.145Z,842.93
2019-02-03T09:24:45.011Z,842.92
2019-02-03T09:25:44.888Z,842.91
2019-02-03T09:26:44.750Z,842.96
2019-02-03T09:27:44.608Z,842.95
2019-02-03T09:28:44.476Z,843.03
2019-02-03T09:29:44.345Z,842.96
2019-02-03T09:30:44.209Z,843.00
2019-02-03T09:31:44.075Z,843.03
2019-02-03T09:32:43.942Z,843.01
2019-02-03T09:33:43.808Z,843.03
2019-02-03T09:34:43.677Z,843.04
2019-02-03T09:35:43.540Z,843.04
2019-02-03T09:36:43.406Z,843.06
2019-02-03T09:37:43.273Z,843.09
2019-02-03T09:38:43.141Z,843.09
2019-02-03T09:39:43.005Z,843.12
2019-02-03T09:40:42.871Z,843.11
2019-02-03T09:41:42.737Z,843.12
2019-02-03T09:42:42.607Z,843.15
2019-02-03T09:43:42.474Z,843.15
2019-02-03T09:44:42.337Z,843.16
2019-02-03T09:45:42.207Z,843.19
2019-02-03T09:46:42.076Z,843.25
2019-02-03T09:47:41.937Z,843.20
2019-02-03T09:48:41.804Z,843.22
2019-02-03T09:49:41.673Z,843.21
2019-02-03T09:50:41.538Z,843.27
2019-02-03T09:51:41.404Z,843.29
2019-02-03T09:52:41.271Z,843.32
2019-02-03T09:53:41.137Z,843.32
2019-02-03T09:54:41.005Z,843.32
2019-02-03T09:55:40.877Z,843.35
2019-02-03T09:56:40.736Z,843.37
2019-02-03T09:57:40.604Z,843.37
2019-02-03T09:58:40.471Z,843.42
2019-02-03T09:59:40.338Z,843.40
2019-02-03T10:00:40.206Z,843.44
2019-02-03T10:01:40.076Z,843.46
2019-02-03T10:02:39.936Z,843.45
2019-02-03T10:03:39.804Z,843.46
2019-02-03T10:04:39.673Z,843.50
2019-02-03T10:05:39.538Z,843.45
2019-02-03T10:06:39.403Z,843.45
2019-02-03T10:07:39.268Z,843.50
2019-02-03T10:08:40.701Z,843.53
2019-02-03T10:09:39.002Z,843.53
2019-02-03T10:10:38.875Z,843.53
2019-02-03T10:11:38.738Z,843.54
2019-02-03T10:12:38.603Z,843.54
2019-02-03T10:13:38.468Z,843.55
2019-02-03T10:14:38.336Z,843.61
2019-02-03T10:15:38.201Z,843.58
2019-02-03T10:16:38.068Z,843.61
2019-02-03T10:17:37.934Z,843.63
2019-02-03T10:18:37.802Z,843.61
2019-02-03T10:19:37.666Z,843.62
2019-02-03T10:20:37.533Z,843.66
2019-02-03T10:21:37.402Z,843.63
2019-02-03T10:22:37.269Z,843.66
2019-02-03T10:23:37.135Z,843.66
2019-02-03T10:24:42.106Z,843.65
2019-02-03T10:25:36.866Z,843.69
2019-02-03T10:26:36.734Z,843.69
2019-02-03T10:27:36.600Z,843.74
2019-02-03T10:28:36.468Z,843.74
2019-02-03T10:29:36.334Z,843.77
2019-02-03T10:30:36.218Z,843.73
2019-02-03T10:31:36.085Z,843.74
2019-02-03T10:32:35.933Z,843.75
2019-02-03T10:33:35.817Z,843.77
2019-02-03T10:34:35.670Z,843.79
2019-02-03T10:35:35.535Z,843.81
2019-02-03T10:36:35.402Z,843.83
2019-02-03T10:37:35.266Z,843.81
2019-02-03T10:38:35.135Z,843.78
2019-02-03T10:39:35.000Z,843.81
2019-02-03T10:40:34.869Z,843.80
2019-02-03T10:41:34.749Z,843.78
2019-02-03T10:42:34.600Z,843.80
2019-02-03T10:43:34.470Z,843.81
2019-02-03T10:44:34.333Z,843.82
2019-02-03T10:45:34.199Z,843.85
2019-02-03T10:46:34.148Z,843.85
2019-02-03T10:47:33.931Z,843.81
2019-02-03T10:48:33.801Z,843.83
2019-02-03T10:49:33.671Z,843.84
2019-02-03T10:50:33.534Z,843.83
2019-02-03T10:51:33.401Z,843.88
2019-02-03T10:52:33.267Z,843.91
2019-02-03T10:53:33.133Z,843.90
2019-02-03T10:54:33.001Z,843.93
2019-02-03T10:55:32.867Z,843.92
2019-02-03T10:56:32.735Z,843.92
2019-02-03T10:57:32.598Z,843.94
2019-02-03T10:58:32.467Z,843.95
2019-02-03T10:59:32.334Z,843.95
2019-02-03T11:00:32.203Z,843.96
2019-02-03T11:01:32.067Z,844.02
2019-02-03T11:02:31.949Z,844.01
2019-02-03T11:03:31.800Z,844.04
2019-02-03T11:04:31.668Z,844.04
2019-02-03T11:05:31.537Z,844.03
2019-02-03T11:06:31.406Z,844.03
2019-02-03T11:07:31.273Z,844.06
2019-02-03T11:08:31.285Z,844.06
2019-02-03T11:09:31.003Z,844.03
2019-02-03T11:10:30.872Z,844.05
2019-02-03T11:11:36.642Z,844.07
2019-02-03T11:12:30.602Z,844.08
2019-02-03T11:13:30.470Z,844.11
2019-02-03T11:14:30.343Z,844.15
2019-02-03T11:15:30.205Z,844.16
2019-02-03T11:16:30.077Z,844.19
2019-02-03T11:17:29.939Z,844.20
2019-02-03T11:18:29.805Z,844.18
2019-02-03T11:19:29.669Z,844.21
2019-02-03T11:20:29.536Z,844.24
2019-02-03T11:21:29.402Z,844.26
2019-02-03T11:22:29.272Z,844.31
2019-02-03T11:23:29.136Z,844.31
2019-02-03T11:24:29.008Z,844.32
2019-02-03T11:25:28.869Z,844.29
2019-02-03T11:26:28.741Z,844.29
2019-02-03T11:27:28.609Z,844.32
2019-02-03T11:28:28.469Z,844.33
2019-02-03T11:29:28.338Z,844.35
2019-02-03T11:30:28.205Z,844.35
2019-02-03T11:31:28.072Z,844.33
2019-02-03T11:32:27.945Z,844.38
2019-02-03T11:33:27.804Z,844.35
2019-02-03T11:34:27.678Z,844.36
2019-02-03T11:35:27.536Z,844.39
2019-02-03T11:36:27.403Z,844.36
2019-02-03T11:37:27.273Z,844.41
2019-02-03T11:38:27.140Z,844.40
2019-02-03T11:39:27.006Z,844.46
2019-02-03T11:40:26.872Z,844.47
2019-02-03T11:41:26.738Z,844.45
2019-02-03T11:42:26.606Z,844.47
2019-02-03T11:43:26.470Z,844.45
2019-02-03T11:44:26.338Z,844.45
2019-02-03T11:45:26.206Z,844.42
2019-02-03T11:46:26.073Z,844.45
2019-02-03T11:47:25.937Z,844.44
2019-02-03T11:48:25.806Z,844.46
2019-02-03T11:49:25.680Z,844.52
2019-02-03T11:50:25.541Z,844.55
2019-02-03T11:51:25.404Z,844.55
2019-02-03T11:52:25.273Z,844.57
2019-02-03T11:53:25.143Z,844.62
2019-02-03T11:54:25.007Z,844.60
2019-02-03T11:55:24.875Z,844.66
2019-02-03T11:56:24.739Z,844.69
2019-02-03T11:57:24.607Z,844.69
2019-02-03T11:58:24.474Z,844.64
2019-02-03T11:59:24.341Z,844.66
2019-02-03T12:00:24.208Z,844.67
2019-02-03T12:01:24.076Z,844.69
2019-02-03T12:02:24.080Z,844.65
2019-02-03T12:03:23.806Z,844.69
2019-02-03T12:04:23.674Z,844.67
2019-02-03T12:05:23.540Z,844.72
2019-02-03T12:06:23.409Z,844.68
2019-02-03T12:07:23.275Z,844.67
2019-02-03T12:08:23.147Z,844.69
2019-02-03T12:09:23.009Z,844.70
2019-02-03T12:10:22.875Z,844.73
2019-02-03T12:11:22.741Z,844.71
2019-02-03T12:12:22.609Z,844.75
2019-02-03T12:13:22.479Z,844.73
2019-02-03T12:14:22.344Z,844.78
2019-02-03T12:15:22.208Z,844.76
2019-02-03T12:16:22.078Z,844.79
2019-02-03T12:17:21.943Z,844.78
2019-02-03T12:18:21.810Z,844.76
2019-02-03T12:19:21.676Z,844.82
2019-02-03T12:20:21.544Z,844.80
2019-02-03T12:21:21.413Z,844.81
2019-02-03T12:22:21.278Z,844.79
2019-02-03T12:23:21.144Z,844.83
2019-02-03T12:24:21.013Z,844.86
2019-02-03T12:25:20.879Z,844.85
2019-02-03T12:26:20.746Z,844.86